Time;durP1;ratioP1;P1;durP2;ratioP2;P2;SDS_P1;SDS_P2;PMS_P1;PMS_P2;Temp;Humidity;BMP_temperature;BMP_pressure;BME280_temperature;BME280_humidity;BME280_pressure;Samples;Min_cycle;Max_cycle;Signal;HPM_P1;HPM_P2
2023/03/12 00:00:09;;;;;;;3.78;2.60;;;2.20;99.90;;;1.97;nan;100354.06;4994432;28;20202;-66
2023/03/12 00:02:36;;;;;;;3.03;2.15;;;2.20;99.90;;;1.94;nan;100356.78;4993044;28;20242;-65
2023/03/12 00:05:03;;;;;;;2.28;2.13;;;2.20;99.90;;;1.91;nan;100349.19;4993805;28;20254;-67
2023/03/12 00:07:30;;;;;;;1.75;1.65;;;2.10;99.90;;;1.87;nan;100358.78;4993154;28;20657;-66
2023/03/12 00:09:57;;;;;;;3.70;2.22;;;2.10;99.90;;;1.80;nan;100361.63;4991574;28;20200;-66
2023/03/12 00:12:24;;;;;;;2.47;2.25;;;2.00;99.90;;;1.73;nan;100362.75;4994304;28;20214;-66
2023/03/12 00:14:51;;;;;;;2.83;2.65;;;2.00;99.90;;;1.67;nan;100358.72;4992259;28;20663;-66
2023/03/12 00:17:18;;;;;;;5.40;3.55;;;1.90;99.90;;;1.66;nan;100369.06;4993206;28;20203;-66
2023/03/12 00:19:45;;;;;;;7.97;4.55;;;1.90;99.90;;;1.64;nan;100361.41;4992252;28;20211;-66
2023/03/12 00:22:13;;;;;;;6.43;3.67;;;1.90;99.90;;;1.67;nan;100361.28;4994845;28;20269;-66
2023/03/12 00:24:39;;;;;;;5.90;4.07;;;1.90;99.90;;;1.69;nan;100359.50;4993179;28;20239;-64
2023/03/12 00:27:06;;;;;;;4.30;3.88;;;1.90;99.90;;;1.75;nan;100363.53;4993445;28;20204;-65
2023/03/12 00:29:34;;;;;;;14.68;3.50;;;2.00;99.90;;;1.83;nan;100371.81;4991862;28;20584;-66
2023/03/12 00:32:01;;;;;;;5.00;3.60;;;2.00;99.90;;;1.90;nan;100365.50;4992860;28;20214;-65
2023/03/12 00:34:29;;;;;;;6.72;4.13;;;2.10;99.90;;;1.91;nan;100378.31;4992129;28;20215;-66
2023/03/12 00:36:56;;;;;;;9.88;4.40;;;2.10;99.90;;;1.93;nan;100378.25;4993689;28;20215;-66
2023/03/12 00:39:22;;;;;;;5.72;3.90;;;2.10;99.90;;;1.93;nan;100378.25;4991580;28;20218;-66
2023/03/12 00:41:49;;;;;;;6.03;4.10;;;2.10;99.90;;;1.97;nan;100374.66;4992856;28;20211;-67
2023/03/12 00:44:16;;;;;;;7.93;3.92;;;2.20;99.90;;;1.98;nan;100378.91;4989440;28;20617;-66
2023/03/12 00:46:43;;;;;;;4.53;3.30;;;2.20;99.90;;;2.01;nan;100378.78;4993012;28;20228;-67
2023/03/12 00:49:10;;;;;;;4.03;3.28;;;2.20;99.90;;;2.02;nan;100377.88;4991703;28;20200;-66
2023/03/12 00:51:38;;;;;;;4.82;2.75;;;2.30;99.90;;;2.01;nan;100376.19;4991746;28;20649;-66
2023/03/12 00:54:04;;;;;;;2.65;2.45;;;2.20;99.90;;;2.03;nan;100374.41;5003492;23;20234;-66
2023/03/12 00:56:31;;;;;;;5.80;4.00;;;2.20;99.90;;;1.97;nan;100365.19;4973938;28;20208;-67
2023/03/12 00:58:58;;;;;;;7.05;4.22;;;2.20;99.90;;;2.00;nan;100369.38;4968524;28;20208;-67
2023/03/12 01:01:26;;;;;;;5.72;4.40;;;2.20;99.90;;;2.02;nan;100372.75;4967909;28;20641;-68
2023/03/12 01:03:54;;;;;;;5.65;3.80;;;2.20;99.90;;;2.05;nan;100368.28;4970640;28;20235;-68
2023/03/12 01:06:21;;;;;;;6.00;3.47;;;2.30;99.90;;;2.05;nan;100365.72;4955031;28;20254;-68
2023/03/12 01:08:48;;;;;;;4.68;3.05;;;2.30;99.90;;;2.05;nan;100363.16;4953656;29;20276;-68
2023/03/12 01:11:19;;;;;;;2.28;2.03;;;2.30;99.90;;;2.06;nan;100362.25;4936711;29;20205;-68
2023/03/12 01:13:47;;;;;;;6.85;2.95;;;2.30;99.90;;;2.08;nan;100368.19;4951929;28;20205;-67
2023/03/12 01:16:14;;;;;;;3.33;2.80;;;2.30;99.90;;;2.10;nan;100368.09;4953143;28;20213;-67
2023/03/12 01:18:41;;;;;;;3.65;2.70;;;2.30;99.90;;;2.13;nan;100361.09;4952659;29;20204;-67
2023/03/12 01:21:08;;;;;;;4.93;2.95;;;2.30;99.90;;;2.21;nan;100359.06;4953812;29;20828;-67
2023/03/12 01:23:36;;;;;;;6.55;3.22;;;2.40;99.90;;;2.25;nan;100354.59;4953101;28;20204;-67
2023/03/12 01:26:03;;;;;;;3.75;2.88;;;2.50;99.90;;;2.26;nan;100361.41;4951932;28;20240;-68
2023/03/12 01:28:30;;;;;;;2.38;2.17;;;2.50;99.90;;;2.29;nan;100359.56;4950775;28;20837;-68
2023/03/12 01:30:57;;;;;;;5.35;3.25;;;2.50;99.90;;;2.28;nan;100364.75;4952964;29;20213;-67
2023/03/12 01:33:24;;;;;;;7.68;3.85;;;2.50;99.90;;;2.25;nan;100370.88;4953305;29;20257;-68
2023/03/12 01:35:51;;;;;;;5.60;4.00;;;2.50;99.90;;;2.27;nan;100363.94;4952944;28;20232;-68
2023/03/12 01:38:19;;;;;;;6.85;4.20;;;2.50;99.90;;;2.28;nan;100367.31;4952469;29;20224;-68
2023/03/12 01:40:46;;;;;;;6.05;4.25;;;2.50;99.90;;;2.34;nan;100370.47;4952570;29;20509;-68
2023/03/12 01:43:32;;;;;;;5.45;4.05;;;2.60;99.90;;;2.41;nan;100365.91;4951784;29;20208;-66
2023/03/12 01:46:35;;;;;;;4.93;3.92;;;2.60;99.90;;;2.46;nan;100368.28;4952936;28;20237;-66
2023/03/12 01:49:27;;;;;;;3.38;2.08;;;2.70;99.90;;;2.42;nan;100353.88;4951741;29;20263;-65
2023/03/12 01:52:08;;;;;;;4.10;1.55;;;2.60;99.90;;;2.39;nan;100352.25;4968929;28;20582;-66
2023/03/12 01:54:49;;;;;;;2.58;2.38;;;2.60;99.90;;;2.41;nan;100345.31;4952354;28;20232;-65
2023/03/12 01:57:40;;;;;;;1.75;1.65;;;2.60;99.90;;;2.35;nan;100340.44;4951693;29;20203;-66
2023/03/12 02:00:16;;;;;;;1.60;1.50;;;2.60;99.90;;;2.33;nan;100335.34;4950843;29;20737;-66
2023/03/12 02:02:44;;;;;;;3.17;2.47;;;2.50;99.90;;;2.30;nan;100339.78;4968418;28;20282;-67
2023/03/12 02:05:37;;;;;;;4.03;2.38;;;2.50;99.90;;;2.27;nan;100337.34;4952591;28;20236;-67
2023/03/12 02:08:04;;;;;;;2.15;1.95;;;2.50;99.90;;;2.29;nan;100333.81;4950976;29;20212;-65
2023/03/12 02:10:31;;;;;;;1.77;1.67;;;2.50;99.90;;;2.27;nan;100332.19;4966065;28;20208;-66
2023/03/12 02:12:58;;;;;;;2.70;1.65;;;2.50;99.90;;;2.30;nan;100334.63;4951365;29;20205;-66
2023/03/12 02:15:25;;;;;;;3.65;1.95;;;2.50;99.90;;;2.31;nan;100332.00;4951757;28;20236;-66
2023/03/12 02:17:53;;;;;;;2.25;1.38;;;2.50;99.90;;;2.34;nan;100331.03;4952270;29;20321;-66
2023/03/12 02:20:24;;;;;;;2.38;2.20;;;2.50;99.90;;;2.36;nan;100331.81;4952293;28;20212;-66
2023/03/12 02:23:09;;;;;;;2.22;2.03;;;2.50;99.90;;;2.39;nan;100321.38;4952442;29;20212;-67
2023/03/12 02:25:43;;;;;;;1.55;1.45;;;2.60;99.90;;;2.45;nan;100326.25;4951020;28;20236;-66
2023/03/12 02:28:15;;;;;;;1.83;1.67;;;2.60;99.90;;;2.49;nan;100314.94;4951918;29;20209;-67
2023/03/12 02:30:48;;;;;;;2.00;1.90;;;2.70;99.90;;;2.52;nan;100322.50;4952393;29;20196;-66
2023/03/12 02:33:15;;;;;;;1.80;1.70;;;2.70;99.90;;;2.52;nan;100327.66;4967552;28;20696;-66
2023/03/12 02:35:45;;;;;;;3.65;2.53;;;2.70;99.90;;;2.51;nan;100323.44;4951587;28;20225;-66
2023/03/12 02:38:31;;;;;;;2.15;1.73;;;2.70;99.90;;;2.51;nan;100320.84;4952036;29;20216;-66
2023/03/12 02:41:19;;;;;;;1.45;1.30;;;2.70;99.90;;;2.56;nan;100321.47;4951805;29;20208;-66
2023/03/12 02:44:13;;;;;;;1.63;1.52;;;2.70;99.90;;;2.59;nan;100311.03;4951643;28;20217;-66
2023/03/12 02:46:47;;;;;;;1.02;0.90;;;2.80;99.90;;;2.57;nan;100325.72;4968235;28;20212;-66
2023/03/12 02:49:16;;;;;;;0.77;0.75;;;2.80;99.90;;;2.57;nan;100314.59;4951582;28;20212;-66
2023/03/12 02:51:45;;;;;;;2.30;1.23;;;2.80;99.90;;;2.56;nan;100306.00;4953515;29;20208;-66
2023/03/12 02:54:15;;;;;;;1.75;1.65;;;2.70;99.90;;;2.56;nan;100311.16;4950202;28;20718;-66
2023/03/12 02:56:42;;;;;;;1.35;1.25;;;2.70;99.90;;;2.57;nan;100297.41;4953291;28;20216;-66
2023/03/12 02:59:12;;;;;;;2.92;2.28;;;2.80;99.90;;;2.56;nan;100300.84;4952594;28;20215;-68
2023/03/12 03:01:39;;;;;;;1.92;1.83;;;2.70;99.90;;;2.58;nan;100301.63;4952582;29;20209;-66
2023/03/12 03:04:08;;;;;;;2.22;2.05;;;2.80;99.90;;;2.61;nan;100305.81;4951150;28;20228;-67
2023/03/12 03:06:39;;;;;;;1.83;1.73;;;2.80;99.90;;;2.64;nan;100305.69;4951392;28;20215;-67
2023/03/12 03:09:06;;;;;;;3.13;2.05;;;2.80;99.90;;;2.62;nan;100310.06;4943170;29;20201;-68
2023/03/12 03:11:33;;;;;;;2.55;1.58;;;2.80;99.90;;;2.62;nan;100308.31;4951881;29;20197;-68
2023/03/12 03:14:02;;;;;;;1.48;1.42;;;2.80;99.90;;;2.66;nan;100309.03;4950366;28;20224;-67
2023/03/12 03:16:29;;;;;;;4.20;1.75;;;2.80;99.90;;;2.68;nan;100307.22;4953243;29;20208;-65
2023/03/12 03:18:56;;;;;;;1.25;1.25;;;2.90;99.90;;;2.70;nan;100310.56;4950826;29;20212;-68
2023/03/12 03:21:23;;;;;;;5.05;1.63;;;2.90;99.90;;;2.69;nan;100304.56;4952476;29;20693;-66
2023/03/12 03:23:50;;;;;;;2.08;1.95;;;2.80;99.90;;;2.76;nan;100316.28;4965939;28;20225;-67
2023/03/12 03:26:21;;;;;;;4.65;3.35;;;2.90;99.90;;;2.83;nan;100320.22;4951838;29;20232;-68
2023/03/12 03:28:48;;;;;;;3.38;2.63;;;3.00;99.90;;;2.90;nan;100320.78;4950999;29;20220;-68
2023/03/12 03:31:16;;;;;;;3.67;2.50;;;3.00;99.90;;;2.98;nan;100322.09;4953073;29;20205;-67
2023/03/12 03:33:43;;;;;;;2.03;1.90;;;3.10;99.90;;;3.04;nan;100316.69;4951999;28;20209;-67
2023/03/12 03:36:13;;;;;;;2.00;1.90;;;3.20;99.90;;;3.12;nan;100314.59;4952222;28;20208;-67
2023/03/12 03:38:41;;;;;;;2.63;2.42;;;3.30;99.90;;;3.12;nan;100319.75;4948524;29;20268;-66
2023/03/12 03:41:08;;;;;;;2.80;2.60;;;3.30;99.90;;;3.14;nan;100328.25;4948438;29;20213;-67
2023/03/12 03:43:35;;;;;;;5.93;2.45;;;3.30;99.90;;;3.13;nan;100321.41;4934913;29;20241;-67
2023/03/12 03:46:04;;;;;;;3.70;2.20;;;3.30;99.90;;;3.16;nan;100317.84;4932140;29;20648;-66
2023/03/12 03:48:32;;;;;;;3.00;2.70;;;3.30;99.90;;;3.14;nan;100317.09;4932938;29;20684;-66
2023/03/12 03:51:04;;;;;;;1.70;1.60;;;3.30;99.90;;;3.10;nan;100308.69;4938066;29;20693;-66
2023/03/12 03:53:33;;;;;;;4.40;1.20;;;3.30;99.90;;;3.05;nan;100294.31;4955447;28;20212;-67
2023/03/12 03:56:15;;;;;;;2.88;1.65;;;3.20;99.90;;;3.02;nan;100295.28;4947062;29;20232;-66
2023/03/12 03:58:42;;;;;;;2.28;1.10;;;3.20;99.90;;;3.00;nan;100299.69;4954804;29;20243;-67
2023/03/12 04:01:13;;;;;;;1.67;1.20;;;3.20;99.90;;;3.00;nan;100294.53;4970891;28;20208;-66
2023/03/12 04:03:40;;;;;;;1.85;1.75;;;3.20;99.90;;;2.97;nan;100297.25;4955269;28;20219;-67
2023/03/12 04:06:08;;;;;;;2.40;1.25;;;3.20;99.90;;;2.93;nan;100290.59;4955988;28;20236;-67
2023/03/12 04:08:36;;;;;;;1.73;1.42;;;3.10;99.90;;;2.93;nan;100295.75;4954641;29;20216;-67
2023/03/12 04:11:13;;;;;;;1.00;1.00;;;3.10;99.90;;;2.90;nan;100288.13;4955280;28;20216;-66
2023/03/12 04:13:41;;;;;;;1.55;1.40;;;3.10;99.90;;;2.95;nan;100290.50;4955672;28;20212;-67
2023/03/12 04:16:09;;;;;;;3.05;0.75;;;3.10;99.90;;;2.91;nan;100305.28;4968964;28;20201;-67
2023/03/12 04:18:36;;;;;;;1.20;1.10;;;3.10;99.90;;;2.88;nan;100302.81;4955320;29;20212;-66
2023/03/12 04:21:05;;;;;;;0.52;0.52;;;3.10;99.90;;;2.92;nan;100304.34;4955112;29;20271;-67
2023/03/12 04:23:32;;;;;;;0.82;0.82;;;3.10;99.90;;;2.96;nan;100298.16;4955257;28;20212;-64
2023/03/12 04:25:59;;;;;;;1.08;1.00;;;3.10;99.90;;;2.98;nan;100295.53;4952658;28;20667;-67
2023/03/12 04:28:26;;;;;;;1.02;1.02;;;3.10;99.90;;;3.00;nan;100291.13;4954545;29;20217;-67
2023/03/12 04:31:00;;;;;;;1.40;1.25;;;3.10;99.90;;;3.06;nan;100299.41;4954833;29;20207;-67
2023/03/12 04:33:30;;;;;;;2.97;2.35;;;3.20;99.90;;;3.13;nan;100299.97;4969590;28;20260;-67
2023/03/12 04:35:58;;;;;;;2.45;1.80;;;3.20;99.90;;;3.17;nan;100302.31;4954363;28;20585;-67
2023/03/12 04:38:26;;;;;;;3.20;3.00;;;3.30;99.90;;;3.22;nan;100309.00;4954685;28;20216;-67
2023/03/12 04:41:04;;;;;;;2.60;2.47;;;3.40;99.90;;;3.25;nan;100301.97;4952948;29;20212;-67
2023/03/12 04:43:32;;;;;;;2.63;2.40;;;3.40;99.90;;;3.28;nan;100303.56;4953541;29;20205;-67
2023/03/12 04:45:59;;;;;;;1.80;1.80;;;3.40;99.90;;;3.30;nan;100296.59;4953333;28;20232;-67
2023/03/12 04:48:27;;;;;;;1.05;1.05;;;3.40;99.90;;;3.28;nan;100294.06;4953613;29;20208;-67
2023/03/12 04:50:54;;;;;;;1.20;1.10;;;3.50;99.90;;;3.19;nan;100288.53;4954537;29;20215;-66
2023/03/12 04:53:22;;;;;;;0.88;0.88;;;3.40;99.90;;;3.00;nan;100284.22;4954800;29;20209;-66
2023/03/12 04:55:49;;;;;;;0.60;0.60;;;3.20;99.90;;;2.86;nan;100296.91;4953994;28;20244;-66
2023/03/12 04:58:19;;;;;;;0.75;0.75;;;3.10;99.90;;;2.81;nan;100298.03;4954870;29;20212;-66
2023/03/12 05:00:48;;;;;;;0.93;0.90;;;3.00;99.90;;;2.75;nan;100286.25;4954415;29;20205;-67
2023/03/12 05:03:16;;;;;;;0.88;0.60;;;2.90;99.90;;;2.75;nan;100282.84;4954518;28;20224;-66
2023/03/12 05:05:43;;;;;;;1.10;1.10;;;2.90;99.90;;;2.71;nan;100287.28;4952465;28;20725;-67
2023/03/12 05:08:10;;;;;;;0.50;0.50;;;2.90;99.90;;;2.62;nan;100276.59;4953876;29;20213;-67
2023/03/12 05:10:37;;;;;;;14.38;1.33;;;2.80;99.90;;;2.34;nan;100289.84;4949214;29;20209;-66
2023/03/12 05:13:15;;;;;;;0.82;0.82;;;2.60;99.90;;;2.17;nan;100290.56;4952816;28;20208;-66
2023/03/12 05:15:43;;;;;;;0.85;0.85;;;2.40;99.90;;;2.05;nan;100290.25;4943657;28;20237;-67
2023/03/12 05:18:10;;;;;;;0.75;0.75;;;2.20;99.90;;;1.83;nan;100284.34;4933684;29;20209;-67
2023/03/12 05:20:37;;;;;;;0.40;0.40;;;2.00;99.90;;;1.66;nan;100289.34;4952311;29;20213;-67
2023/03/12 05:23:04;;;;;;;0.88;0.63;;;1.90;99.90;;;1.54;nan;100288.09;4953935;29;20710;-66
2023/03/12 05:25:31;;;;;;;0.30;0.30;;;1.70;99.90;;;1.47;nan;100279.81;4952571;28;20269;-67
2023/03/12 05:27:57;;;;;;;0.40;0.40;;;1.70;99.90;;;1.38;nan;100275.06;4953263;29;20204;-67
2023/03/12 05:30:24;;;;;;;0.60;0.60;;;1.60;99.90;;;1.37;nan;100281.06;4950971;29;20208;-66
2023/03/12 05:32:51;;;;;;;1.88;1.20;;;1.60;99.90;;;1.31;nan;100280.47;4953510;29;20221;-66
2023/03/12 05:35:18;;;;;;;0.85;0.85;;;1.50;99.90;;;1.31;nan;100280.47;4962187;28;20229;-66
2023/03/12 05:37:45;;;;;;;0.60;0.60;;;1.50;99.90;;;1.33;nan;100282.09;4936230;29;20209;-67
2023/03/12 05:40:13;;;;;;;0.68;0.68;;;1.50;99.90;;;1.36;nan;100274.25;4943470;29;20223;-65
2023/03/12 05:42:39;;;;;;;0.35;0.35;;;1.50;99.90;;;1.40;nan;100277.56;4950177;29;20683;-65
2023/03/12 05:45:07;;;;;;;0.40;0.40;;;1.60;99.90;;;1.38;nan;100269.91;4952166;28;20228;-66
2023/03/12 05:47:34;;;;;;;3.58;1.42;;;1.60;99.90;;;1.42;nan;100273.19;4953896;28;20747;-66
2023/03/12 05:50:01;;;;;;;1.20;1.15;;;1.60;99.90;;;1.44;nan;100267.09;4952118;29;20213;-66
2023/03/12 05:52:28;;;;;;;0.43;0.43;;;1.60;99.90;;;1.50;nan;100261.69;4951694;29;20595;-66
2023/03/12 05:54:55;;;;;;;1.17;1.10;;;1.70;99.90;;;1.50;nan;100271.13;4952118;28;20477;-65
2023/03/12 05:57:22;;;;;;;0.50;0.50;;;1.70;99.90;;;1.52;nan;100275.31;4951910;29;20642;-66
2023/03/12 05:59:49;;;;;;;1.05;1.00;;;1.70;99.90;;;1.58;nan;100274.22;4952044;29;20689;-66
2023/03/12 06:02:16;;;;;;;1.00;1.00;;;1.80;99.90;;;1.58;nan;100269.91;4952104;29;20204;-66
2023/03/12 06:04:43;;;;;;;1.42;0.95;;;1.80;99.90;;;1.65;nan;100279.94;4952405;28;20268;-66
2023/03/12 06:07:10;;;;;;;1.30;1.20;;;1.80;99.90;;;1.69;nan;100277.19;4960392;28;20246;-66
2023/03/12 06:09:37;;;;;;;0.57;0.57;;;1.90;99.90;;;1.74;nan;100284.72;4951587;28;20227;-66
2023/03/12 06:12:04;;;;;;;0.45;0.45;;;1.90;99.90;;;1.77;nan;100282.03;4947260;28;20213;-66
2023/03/12 06:14:31;;;;;;;0.50;0.50;;;2.00;99.90;;;1.76;nan;100283.75;4946292;28;20216;-66
2023/03/12 06:16:58;;;;;;;1.25;0.80;;;2.00;99.90;;;1.75;nan;100286.38;4951445;29;20205;-66
2023/03/12 06:19:25;;;;;;;0.40;0.40;;;2.00;99.90;;;1.73;nan;100280.47;4953870;28;20205;-66
2023/03/12 06:21:52;;;;;;;1.23;1.05;;;2.00;99.90;;;1.74;nan;100269.28;4952850;29;20225;-66
2023/03/12 06:24:19;;;;;;;1.73;0.60;;;2.00;99.90;;;1.75;nan;100276.09;4953804;28;20235;-66
2023/03/12 06:26:46;;;;;;;0.55;0.55;;;2.00;99.90;;;1.78;nan;100275.97;4952617;28;20251;-66
2023/03/12 06:29:13;;;;;;;0.95;0.95;;;2.00;99.90;;;1.81;nan;100276.69;4951573;29;20201;-66
2023/03/12 06:31:40;;;;;;;1.58;1.05;;;2.00;99.90;;;1.89;nan;100273.81;4935508;29;20597;-65
2023/03/12 06:34:09;;;;;;;1.65;1.00;;;2.10;99.90;;;1.96;nan;100270.88;4934769;29;20237;-66
2023/03/12 06:36:36;;;;;;;0.95;0.95;;;2.20;99.90;;;2.03;nan;100268.91;4949760;29;20212;-66
2023/03/12 06:39:07;;;;;;;1.08;1.00;;;2.30;99.90;;;2.09;nan;100264.31;4943515;28;20200;-65
2023/03/12 06:41:35;;;;;;;1.02;1.02;;;2.30;99.90;;;2.16;nan;100263.16;4943316;28;20631;-65
2023/03/12 06:44:04;;;;;;;2.45;1.38;;;2.40;99.90;;;2.21;nan;100271.53;4952596;28;20224;-66
2023/03/12 06:46:32;;;;;;;1.50;0.95;;;2.40;99.90;;;2.25;nan;100278.22;4944808;28;20235;-66
2023/03/12 06:48:59;;;;;;;1.70;1.20;;;2.50;99.90;;;2.32;nan;100274.44;4948994;28;20679;-66
2023/03/12 06:51:26;;;;;;;2.80;1.30;;;2.50;99.90;;;2.33;nan;100281.28;4949989;28;20255;-66
2023/03/12 06:56:55;;;;;;;1.02;1.02;;;2.60;99.90;;;2.41;nan;100262.91;4938584;28;20223;-66
2023/03/12 06:59:22;;;;;;;3.20;0.98;;;2.70;99.90;;;2.44;nan;100261.94;4962034;28;20218;-67
2023/03/12 07:01:49;;;;;;;0.90;0.90;;;2.70;99.90;;;2.48;nan;100261.75;4956380;28;20207;-66
2023/03/12 07:04:16;;;;;;;0.73;0.73;;;2.70;99.90;;;2.46;nan;100260.13;4952692;28;20208;-66
2023/03/12 07:06:43;;;;;;;0.32;0.32;;;2.80;99.90;;;2.46;nan;100255.81;4952557;29;20247;-66
2023/03/12 07:09:10;;;;;;;1.55;1.42;;;2.70;99.90;;;2.43;nan;100258.53;4952461;28;20208;-66
2023/03/12 07:11:37;;;;;;;0.93;0.93;;;2.70;99.90;;;2.45;nan;100258.47;4955688;28;20211;-66
2023/03/12 07:14:04;;;;;;;1.23;1.23;;;2.60;99.90;;;2.43;nan;100255.94;4952669;28;20666;-68
2023/03/12 07:16:31;;;;;;;0.88;0.88;;;2.70;99.90;;;2.46;nan;100257.56;4952577;29;20679;-66
2023/03/12 07:18:58;;;;;;;0.70;0.70;;;2.70;99.90;;;2.50;nan;100252.22;4960415;28;20212;-65
2023/03/12 07:21:25;;;;;;;2.60;0.93;;;2.70;99.90;;;2.49;nan;100263.44;4951721;28;20278;-66
2023/03/12 07:23:52;;;;;;;1.00;0.90;;;2.70;99.90;;;2.47;nan;100266.97;4946884;28;20223;-67
2023/03/12 07:26:19;;;;;;;1.08;1.08;;;2.70;99.90;;;2.48;nan;100274.63;4937395;29;20298;-65
2023/03/12 07:28:46;;;;;;;0.73;0.60;;;2.70;99.90;;;2.45;nan;100269.59;4953420;29;20205;-68
2023/03/12 07:31:13;;;;;;;0.68;0.68;;;2.60;99.90;;;2.43;nan;100260.28;4956057;29;20231;-66
2023/03/12 07:33:40;;;;;;;0.90;0.90;;;2.60;99.90;;;2.42;nan;100272.31;4938910;29;20275;-66
2023/03/12 07:36:08;;;;;;;1.48;1.35;;;2.60;99.90;;;2.53;nan;100266.69;4955803;28;20239;-66
2023/03/12 07:38:35;;;;;;;1.08;1.08;;;2.70;99.90;;;2.51;nan;100260.78;4955537;29;20204;-66
2023/03/12 07:41:02;;;;;;;1.40;0.70;;;2.70;99.90;;;2.56;nan;100262.22;4957855;28;20589;-66
2023/03/12 07:43:29;;;;;;;1.70;1.60;;;2.70;99.90;;;2.58;nan;100249.31;4960226;28;20208;-67
2023/03/12 07:45:56;;;;;;;1.30;1.30;;;2.80;99.90;;;2.51;nan;100256.47;4942783;28;20236;-66
2023/03/12 07:48:23;;;;;;;0.85;0.85;;;2.70;99.90;;;2.50;nan;100256.53;4955759;28;20275;-68
2023/03/12 07:50:50;;;;;;;1.52;0.95;;;2.70;99.90;;;2.52;nan;100265.84;4956142;29;20583;-67
2023/03/12 07:53:18;;;;;;;1.55;0.82;;;2.70;99.90;;;2.51;nan;100269.34;4955928;28;20205;-66
2023/03/12 07:55:46;;;;;;;2.03;1.85;;;2.70;99.90;;;2.54;nan;100264.03;4960019;28;20235;-66
2023/03/12 07:58:15;;;;;;;3.50;0.93;;;2.80;99.90;;;2.60;nan;100268.09;4960299;28;20212;-67
2023/03/12 08:00:42;;;;;;;0.70;0.70;;;2.80;99.90;;;2.65;nan;100271.28;4955770;29;20666;-65
2023/03/12 08:03:10;;;;;;;2.47;1.67;;;2.80;99.90;;;2.73;nan;100274.34;4955520;28;20216;-66
2023/03/12 08:05:38;;;;;;;2.45;2.28;;;2.90;99.90;;;2.79;nan;100279.25;4955608;28;20216;-67
2023/03/12 08:08:05;;;;;;;0.50;0.50;;;3.00;99.90;;;2.79;nan;100281.81;4955515;28;20213;-66
2023/03/12 08:10:32;;;;;;;2.38;1.73;;;3.00;99.90;;;2.83;nan;100273.84;4955906;28;20255;-67
2023/03/12 08:12:59;;;;;;;0.80;0.80;;;3.00;99.90;;;2.80;nan;100271.44;4955231;28;20212;-65
2023/03/12 08:15:26;;;;;;;3.60;1.05;;;3.00;99.90;;;2.86;nan;100272.88;4955414;28;20228;-67
2023/03/12 08:17:53;;;;;;;0.75;0.75;;;3.00;99.90;;;2.85;nan;100279.81;4955299;29;20720;-66
2023/03/12 08:20:20;;;;;;;1.73;1.60;;;3.10;99.90;;;2.89;nan;100276.16;4955422;28;20594;-68
2023/03/12 08:22:47;;;;;;;0.93;0.90;;;3.10;99.90;;;2.84;nan;100267.81;4955714;28;20304;-66
2023/03/12 08:25:14;;;;;;;1.25;1.23;;;3.10;99.90;;;2.94;nan;100278.50;4955208;28;20232;-67
2023/03/12 08:27:41;;;;;;;2.80;1.42;;;3.10;99.90;;;3.02;nan;100271.28;4954384;29;20737;-66
2023/03/12 08:30:09;;;;;;;1.67;1.58;;;3.20;99.90;;;3.08;nan;100274.41;4953816;29;20205;-67
2023/03/12 08:32:36;;;;;;;0.85;0.82;;;3.30;99.90;;;3.17;nan;100279.09;4977131;28;20270;-66
2023/03/12 08:35:04;;;;;;;0.57;0.57;;;3.40;99.90;;;3.14;nan;100279.28;4947457;28;20228;-66
2023/03/12 08:37:31;;;;;;;1.70;1.58;;;3.40;99.90;;;3.15;nan;100275.78;4952519;28;20667;-67
2023/03/12 08:39:59;;;;;;;1.73;1.63;;;3.30;99.90;;;3.15;nan;100278.34;4951246;29;20209;-65
2023/03/12 08:42:26;;;;;;;2.15;1.60;;;3.40;99.90;;;3.18;nan;100277.38;4954495;29;20204;-65
2023/03/12 08:44:53;;;;;;;0.68;0.63;;;3.40;99.90;;;3.19;nan;100278.22;4953755;28;20233;-66
2023/03/12 08:47:19;;;;;;;1.38;1.23;;;3.40;99.90;;;3.26;nan;100264.94;4968785;28;20736;-66
2023/03/12 08:49:46;;;;;;;0.68;0.68;;;3.50;99.90;;;3.32;nan;100272.41;4953783;29;20200;-67
2023/03/12 08:52:13;;;;;;;3.03;2.80;;;3.50;99.90;;;3.37;nan;100267.84;4953959;29;20220;-66
2023/03/12 08:54:40;;;;;;;1.13;0.98;;;3.60;99.90;;;3.37;nan;100269.59;4936969;29;20306;-65
2023/03/12 08:57:07;;;;;;;1.35;1.13;;;3.60;99.90;;;3.43;nan;100261.59;4954799;29;20217;-66
2023/03/12 08:59:35;;;;;;;0.50;0.50;;;3.60;99.90;;;3.47;nan;100261.34;4954257;29;20278;-66
2023/03/12 09:02:02;;;;;;;1.67;1.58;;;3.70;99.90;;;3.53;nan;100265.38;4954881;28;20279;-66
2023/03/12 09:04:29;;;;;;;0.98;0.93;;;3.70;99.90;;;3.59;nan;100262.50;4953661;28;20240;-66
2023/03/12 09:06:56;;;;;;;0.82;0.82;;;3.80;99.90;;;3.58;nan;100266.81;4968372;28;20227;-66
2023/03/12 09:09:23;;;;;;;2.10;0.90;;;3.80;99.90;;;3.60;nan;100262.41;4954452;28;20219;-67
2023/03/12 09:11:50;;;;;;;2.58;2.38;;;3.80;99.90;;;3.68;nan;100257.72;4952885;28;20204;-66
2023/03/12 09:14:17;;;;;;;1.75;1.60;;;3.90;99.90;;;3.79;nan;100272.69;4954322;28;20246;-66
2023/03/12 09:17:03;;;;;;;1.58;1.50;;;4.00;99.90;;;3.94;nan;100258.97;4949976;29;20635;-65
2023/03/12 09:19:31;;;;;;;2.58;1.38;;;4.10;99.90;;;4.15;nan;100264.81;4953182;29;20212;-66
2023/03/12 09:21:58;;;;;;;2.28;2.05;;;4.30;99.90;;;4.22;nan;100269.56;4950087;29;20215;-66
2023/03/12 09:24:25;;;;;;;1.35;1.17;;;4.40;99.90;;;4.30;nan;100264.84;4954427;28;20240;-66
2023/03/12 09:26:52;;;;;;;3.97;1.98;;;4.50;99.90;;;4.35;nan;100265.44;4953068;29;20306;-66
2023/03/12 09:29:18;;;;;;;1.20;1.20;;;4.60;99.90;;;4.36;nan;100264.53;4954500;29;20228;-65
2023/03/12 09:31:45;;;;;;;2.70;1.95;;;4.60;99.90;;;4.34;nan;100279.28;4947275;28;20255;-67
2023/03/12 09:34:12;;;;;;;2.33;2.10;;;4.60;99.90;;;4.33;nan;100282.75;4957203;28;20193;-66
2023/03/12 09:36:39;;;;;;;4.25;2.20;;;4.60;99.90;;;4.19;nan;100280.06;4954182;29;20251;-67
2023/03/12 09:39:06;;;;;;;1.85;1.58;;;4.40;99.90;;;4.23;nan;100280.75;4952191;29;20212;-66
2023/03/12 09:41:40;;;;;;;0.55;0.55;;;4.40;99.90;;;4.32;nan;100265.59;4953324;29;20682;-65
2023/03/12 09:44:35;;;;;;;3.78;1.38;;;4.50;99.90;;;4.38;nan;100265.28;4965961;28;20609;-66
2023/03/12 09:47:30;;;;;;;1.05;1.00;;;4.60;99.90;;;4.51;nan;100271.50;4967010;28;20224;-66
2023/03/12 09:50:39;;;;;;;3.30;2.88;;;4.70;99.90;;;4.59;nan;100273.66;4955877;28;20609;-65
2023/03/12 09:53:20;;;;;;;0.93;0.93;;;4.70;99.90;;;4.68;nan;100283.50;4952852;28;20208;-65
2023/03/12 09:55:50;;;;;;;1.98;1.50;;;4.80;99.90;;;4.75;nan;100284.84;4952765;28;20788;-65
2023/03/12 09:58:37;;;;;;;2.45;1.77;;;4.90;99.90;;;4.71;nan;100289.34;4974010;28;20212;-66
2023/03/12 10:01:28;;;;;;;1.85;1.65;;;4.90;99.90;;;4.79;nan;100294.13;4952592;28;20204;-63
2023/03/12 10:04:25;;;;;;;1.70;1.60;;;5.00;99.90;;;4.88;nan;100290.16;4970834;28;20655;-66
2023/03/12 10:07:10;;;;;;;5.00;3.72;;;5.10;99.90;;;4.88;nan;100301.34;4971261;28;20231;-66
2023/03/12 10:10:13;;;;;;;4.13;2.78;;;5.10;99.90;;;4.85;nan;100309.28;4951977;28;20219;-66
2023/03/12 10:13:12;;;;;;;1.00;1.00;;;5.00;99.90;;;4.92;nan;100299.47;4946630;28;20205;-67
2023/03/12 10:16:18;;;;;;;1.83;1.10;;;5.10;99.90;;;5.12;nan;100310.38;4935470;29;20229;-66
2023/03/12 10:19:16;;;;;;;0.75;0.60;;;5.20;99.90;;;5.30;nan;100305.97;4952002;29;20737;-66
2023/03/12 10:22:22;;;;;;;1.70;1.23;;;5.40;99.90;;;5.59;nan;100301.72;4952163;28;20213;-67
2023/03/12 10:25:44;;;;;;;2.03;1.92;;;5.60;99.90;;;6.02;nan;100303.56;4953350;28;20238;-67
2023/03/12 10:28:22;;;;;;;4.80;1.58;;;6.10;99.90;;;6.49;nan;100304.19;4967160;28;20234;-65
2023/03/12 10:31:00;;;;;;;1.75;1.10;;;6.60;99.90;;;6.74;nan;100299.16;4952443;29;20262;-67
2023/03/12 10:33:51;;;;;;;1.70;1.60;;;6.90;99.90;;;6.67;nan;100304.81;4950609;29;20205;-66
2023/03/12 10:36:23;;;;;;;4.10;2.33;;;6.90;99.90;;;6.45;nan;100301.84;4950894;28;20233;-66
2023/03/12 10:38:50;;;;;;;2.58;2.38;;;6.70;99.90;;;6.30;nan;100290.66;4966245;28;20204;-66
2023/03/12 10:41:22;;;;;;;2.42;2.22;;;6.50;99.90;;;6.21;nan;100286.00;4944562;28;20221;-67
2023/03/12 10:43:49;;;;;;;3.83;2.78;;;6.40;99.90;;;6.19;nan;100288.72;4967847;28;20263;-66
2023/03/12 10:46:37;;;;;;;5.82;3.40;;;6.40;99.90;;;6.20;nan;100284.34;4951826;28;20217;-66
2023/03/12 10:49:24;;;;;;;0.75;0.75;;;6.40;99.90;;;6.18;nan;100289.63;4958506;28;20208;-63
2023/03/12 10:52:13;;;;;;;5.28;4.30;;;6.40;99.90;;;6.31;nan;100289.72;4951781;28;20217;-66
2023/03/12 10:54:43;;;;;;;3.03;2.10;;;6.40;99.90;;;6.43;nan;100282.97;4947316;28;20237;-66
2023/03/12 10:57:14;;;;;;;2.37;2.13;;;6.50;99.90;;;6.44;nan;100284.63;4951966;29;20205;-65